createdAt,value
2023-07-18T00:02:06.775Z,76.50
2023-07-18T00:04:40.915Z,76.70
2023-07-18T00:07:08.858Z,76.60
2023-07-18T00:09:44.748Z,76.60
2023-07-18T00:12:18.765Z,76.60
2023-07-18T00:15:05.494Z,76.70
2023-07-18T00:17:42.551Z,76.80
2023-07-18T00:20:20.535Z,76.80
2023-07-18T00:22:50.847Z,76.70
2023-07-18T00:25:20.438Z,76.80
2023-07-18T00:27:55.604Z,76.80
2023-07-18T00:30:29.513Z,76.80
2023-07-18T00:32:57.856Z,76.70
2023-07-18T00:35:28.238Z,76.80
2023-07-18T00:38:01.522Z,76.80
2023-07-18T00:43:21.529Z,76.90
2023-07-18T00:45:50.508Z,76.90
2023-07-18T00:48:18.054Z,76.90
2023-07-18T00:50:51.537Z,76.90
2023-07-18T00:53:18.407Z,76.80
2023-07-18T00:55:52.532Z,76.90
2023-07-18T00:58:19.785Z,76.90
2023-07-18T01:00:53.640Z,77.00
2023-07-18T01:03:20.759Z,77.00
2023-07-18T01:05:48.033Z,77.10
2023-07-18T01:08:21.797Z,77.10
2023-07-18T01:10:48.927Z,77.10
2023-07-18T01:13:22.828Z,77.00
2023-07-18T01:16:09.905Z,77.00
2023-07-18T01:18:44.844Z,77.10
2023-07-18T01:21:19.378Z,77.90
2023-07-18T01:23:53.789Z,77.20
2023-07-18T01:26:20.945Z,77.20
2023-07-18T01:28:47.849Z,77.10
2023-07-18T01:31:21.852Z,77.20
2023-07-18T01:33:49.289Z,77.30
2023-07-18T01:36:16.645Z,77.20
2023-07-18T01:38:49.592Z,77.30
2023-07-18T01:41:16.631Z,77.30
2023-07-18T01:43:50.707Z,77.20
2023-07-18T01:46:17.840Z,77.20
2023-07-18T01:48:51.615Z,77.20
2023-07-18T01:51:18.878Z,77.30
2023-07-18T01:56:19.588Z,77.30
2023-07-18T01:58:46.673Z,77.30
2023-07-18T02:01:13.785Z,77.40
2023-07-18T02:03:47.878Z,77.30
2023-07-18T02:06:14.693Z,77.30
2023-07-18T02:08:47.602Z,77.30
2023-07-18T02:11:14.449Z,77.30
2023-07-18T02:13:47.862Z,77.40
2023-07-18T02:16:27.655Z,77.30
2023-07-18T02:18:55.028Z,77.30
2023-07-18T02:21:28.878Z,77.40
2023-07-18T02:23:55.954Z,77.40
2023-07-18T02:26:23.046Z,77.40
2023-07-18T02:28:56.885Z,77.40
2023-07-18T02:31:24.009Z,77.40
2023-07-18T02:33:50.989Z,77.30
2023-07-18T02:36:25.922Z,77.30
2023-07-18T02:38:52.797Z,77.40
2023-07-18T02:41:25.896Z,77.40
2023-07-18T02:43:52.979Z,77.40
2023-07-18T02:46:19.848Z,77.40
2023-07-18T02:48:53.650Z,77.40
2023-07-18T02:51:21.014Z,77.50
2023-07-18T02:53:50.813Z,77.40
2023-07-18T02:56:24.921Z,77.40
2023-07-18T02:58:51.896Z,77.40
2023-07-18T03:01:27.956Z,77.40
2023-07-18T03:03:55.705Z,77.50
2023-07-18T03:06:31.990Z,77.60
2023-07-18T03:09:05.920Z,77.40
2023-07-18T03:11:39.941Z,77.50
2023-07-18T03:14:08.612Z,77.50
2023-07-18T03:16:42.024Z,77.50
2023-07-18T03:19:11.625Z,77.50
2023-07-18T03:21:44.786Z,77.60
2023-07-18T03:24:19.641Z,77.60
2023-07-18T03:26:46.774Z,77.60
2023-07-18T03:29:14.366Z,77.60
2023-07-18T03:31:48.004Z,77.60
2023-07-18T03:34:15.146Z,77.60
2023-07-18T03:36:48.991Z,77.60
2023-07-18T03:39:17.277Z,77.70
2023-07-18T03:41:51.003Z,77.60
2023-07-18T03:44:18.119Z,77.90
2023-07-18T03:46:45.045Z,77.60
2023-07-18T03:49:18.982Z,77.60
2023-07-18T03:51:45.970Z,77.60
2023-07-18T03:54:19.711Z,77.70
2023-07-18T03:56:47.252Z,77.70
2023-07-18T03:59:14.528Z,77.70
2023-07-18T04:01:49.089Z,77.70
2023-07-18T04:04:22.731Z,77.80
2023-07-18T04:06:49.529Z,77.70
2023-07-18T04:09:16.652Z,77.70
2023-07-18T04:11:53.760Z,77.80
2023-07-18T04:14:26.808Z,77.80
2023-07-18T04:16:59.852Z,77.70
2023-07-18T04:19:39.779Z,77.80
2023-07-18T04:22:06.727Z,77.90
2023-07-18T04:24:33.577Z,77.70
2023-07-18T04:27:06.766Z,77.70
2023-07-18T04:29:34.091Z,77.70
2023-07-18T04:32:00.937Z,77.80
2023-07-18T04:34:34.780Z,77.80
2023-07-18T04:37:01.671Z,77.80
2023-07-18T04:39:35.768Z,77.80
2023-07-18T04:42:03.045Z,77.90
2023-07-18T04:44:36.763Z,77.90
2023-07-18T04:47:04.070Z,77.90
2023-07-18T04:49:43.793Z,77.80
2023-07-18T04:52:10.611Z,77.90
2023-07-18T04:54:38.837Z,77.90
2023-07-18T04:57:13.077Z,77.90
2023-07-18T04:59:50.130Z,77.90
2023-07-18T05:02:24.065Z,77.90
2023-07-18T05:04:51.158Z,77.90
2023-07-18T05:07:25.078Z,77.90
2023-07-18T05:09:51.890Z,78.00
2023-07-18T05:12:19.133Z,78.00
2023-07-18T05:14:52.934Z,77.90
2023-07-18T05:17:25.903Z,78.00
2023-07-18T05:20:05.843Z,77.90
2023-07-18T05:22:32.763Z,77.90
2023-07-18T05:25:00.751Z,77.90
2023-07-18T05:27:33.858Z,78.00
2023-07-18T05:30:07.841Z,78.00
2023-07-18T05:32:34.934Z,78.00
2023-07-18T05:35:09.101Z,78.00
2023-07-18T05:37:35.904Z,78.10
2023-07-18T05:40:04.809Z,78.00
2023-07-18T05:42:39.099Z,78.00
2023-07-18T05:45:08.779Z,78.00
2023-07-18T05:47:36.355Z,80.10
2023-07-18T05:50:12.865Z,80.80
2023-07-18T05:52:39.898Z,80.80
2023-07-18T05:55:08.643Z,80.10
2023-07-18T05:57:41.872Z,79.80
2023-07-18T06:00:11.404Z,79.50
2023-07-18T06:02:44.907Z,79.30
2023-07-18T06:05:12.920Z,79.20
2023-07-18T06:07:39.923Z,79.00
2023-07-18T06:10:24.011Z,79.00
2023-07-18T06:12:51.103Z,79.00
2023-07-18T06:15:43.885Z,79.00
2023-07-18T06:18:21.832Z,79.00
2023-07-18T06:20:55.885Z,78.90
2023-07-18T06:23:29.486Z,79.00
2023-07-18T06:26:03.160Z,79.50
2023-07-18T06:28:37.160Z,79.40
2023-07-18T06:31:04.121Z,79.20
2023-07-18T06:33:37.916Z,79.10
2023-07-18T06:36:05.344Z,79.10
2023-07-18T06:38:32.261Z,79.00
2023-07-18T06:41:06.213Z,79.00
2023-07-18T06:43:33.599Z,79.00
2023-07-18T06:46:00.787Z,79.00
2023-07-18T06:48:33.898Z,79.00
2023-07-18T06:51:03.118Z,79.00
2023-07-18T06:53:29.954Z,79.00
2023-07-18T06:56:02.895Z,79.00
2023-07-18T06:58:36.088Z,79.00
2023-07-18T07:01:03.015Z,79.00
2023-07-18T07:03:31.363Z,78.80
2023-07-18T07:06:04.945Z,79.00
2023-07-18T07:08:32.083Z,79.60
2023-07-18T07:11:14.965Z,78.90
2023-07-18T07:13:41.924Z,78.90
2023-07-18T07:16:21.994Z,78.90
2023-07-18T07:18:55.580Z,78.90
2023-07-18T07:21:28.957Z,78.90
2023-07-18T07:23:57.966Z,78.90
2023-07-18T07:26:31.977Z,78.80
2023-07-18T07:29:05.962Z,78.90
2023-07-18T07:31:32.997Z,79.60
2023-07-18T07:33:59.878Z,78.80
2023-07-18T07:36:33.100Z,79.40
2023-07-18T07:39:00.119Z,78.70
2023-07-18T07:41:27.197Z,78.70
2023-07-18T07:44:01.138Z,79.30
2023-07-18T07:46:28.108Z,78.60
2023-07-18T07:49:05.333Z,78.60
2023-07-18T07:51:32.744Z,78.60
2023-07-18T07:54:07.239Z,78.50
2023-07-18T07:56:34.209Z,78.60
2023-07-18T07:59:11.106Z,78.50
2023-07-18T08:01:46.297Z,78.50
2023-07-18T08:04:13.397Z,78.50
2023-07-18T08:06:41.053Z,78.40
2023-07-18T08:09:14.145Z,78.40
2023-07-18T08:11:41.227Z,78.30
2023-07-18T08:14:08.869Z,78.30
2023-07-18T08:16:42.448Z,78.30
2023-07-18T08:19:16.197Z,78.30
2023-07-18T08:21:56.278Z,78.30
2023-07-18T08:24:23.363Z,78.20
2023-07-18T08:26:57.133Z,78.20
2023-07-18T08:29:38.346Z,78.20
2023-07-18T08:32:06.199Z,78.20
2023-07-18T08:34:33.293Z,78.10
2023-07-18T08:37:07.294Z,78.10
2023-07-18T08:39:34.946Z,78.60
2023-07-18T08:42:11.308Z,78.00
2023-07-18T08:44:39.236Z,77.90
2023-07-18T08:47:14.303Z,77.70
2023-07-18T08:49:48.301Z,77.70
2023-07-18T08:52:15.216Z,77.80
2023-07-18T08:54:42.316Z,77.70
2023-07-18T08:57:16.326Z,77.70
2023-07-18T08:59:48.878Z,77.80
2023-07-18T09:02:23.438Z,78.50
2023-07-18T09:04:52.270Z,77.80
2023-07-18T09:07:21.056Z,77.60
2023-07-18T09:09:58.220Z,77.70
2023-07-18T09:12:32.081Z,77.60
2023-07-18T09:14:59.234Z,77.60
2023-07-18T09:17:40.272Z,77.70
2023-07-18T09:20:25.108Z,77.70
2023-07-18T09:22:58.782Z,77.90
2023-07-18T09:25:33.070Z,77.90
2023-07-18T09:27:59.977Z,78.00
2023-07-18T09:30:51.147Z,77.70
2023-07-18T09:33:25.804Z,78.20
2023-07-18T09:35:59.088Z,78.00
2023-07-18T09:38:33.088Z,77.90
2023-07-18T09:41:00.403Z,77.70
2023-07-18T09:43:31.493Z,77.70
2023-07-18T09:46:06.114Z,77.60
2023-07-18T09:48:44.612Z,77.50
2023-07-18T09:51:23.265Z,77.50
2023-07-18T09:53:50.319Z,77.40
2023-07-18T09:56:25.105Z,77.10
2023-07-18T09:58:53.252Z,77.10
2023-07-18T10:01:34.387Z,77.00
2023-07-18T10:04:08.119Z,77.00
2023-07-18T10:06:35.469Z,76.90
2023-07-18T10:09:10.124Z,77.10
2023-07-18T10:12:08.189Z,76.80
2023-07-18T10:15:12.145Z,76.20
2023-07-18T10:17:52.184Z,76.50
2023-07-18T10:20:38.232Z,76.50
2023-07-18T10:23:13.182Z,76.00
2023-07-18T10:25:40.492Z,76.10
2023-07-18T10:28:07.743Z,76.20
2023-07-18T10:30:49.150Z,76.20
2023-07-18T10:33:16.358Z,76.00
2023-07-18T10:35:43.404Z,75.80
2023-07-18T10:38:17.135Z,75.60
2023-07-18T10:40:51.158Z,75.80
2023-07-18T10:43:19.369Z,75.80
2023-07-18T10:45:53.176Z,75.60
2023-07-18T10:48:21.596Z,75.70
2023-07-18T10:50:49.445Z,75.50
2023-07-18T10:53:27.427Z,75.60
2023-07-18T10:55:57.503Z,75.40
2023-07-18T10:58:24.554Z,75.30
2023-07-18T11:00:58.503Z,75.10
2023-07-18T11:03:28.939Z,75.00
2023-07-18T11:05:56.090Z,74.80
2023-07-18T11:08:33.170Z,74.90
2023-07-18T11:11:13.207Z,75.10
2023-07-18T11:13:48.190Z,74.80
2023-07-18T11:16:35.208Z,74.70
2023-07-18T11:19:08.211Z,74.50
2023-07-18T11:21:37.004Z,74.90
2023-07-18T11:24:04.948Z,74.70
2023-07-18T11:26:38.203Z,74.30
2023-07-18T11:29:05.612Z,74.40
2023-07-18T11:31:46.616Z,74.10
2023-07-18T11:34:23.407Z,74.60
2023-07-18T11:36:57.242Z,73.90
2023-07-18T11:39:24.129Z,74.00
2023-07-18T11:41:53.488Z,74.10
2023-07-18T11:44:34.242Z,74.30
2023-07-18T11:47:01.141Z,73.70
2023-07-18T11:49:42.210Z,73.60
2023-07-18T11:52:10.066Z,73.00
2023-07-18T11:54:43.227Z,73.30
2023-07-18T11:57:10.045Z,73.20
2023-07-18T11:59:36.874Z,73.80
2023-07-18T12:02:10.512Z,72.40
2023-07-18T12:04:40.185Z,72.50
2023-07-18T12:07:08.010Z,71.50
2023-07-18T12:09:41.255Z,70.40
2023-07-18T12:12:08.984Z,71.20
2023-07-18T12:14:36.542Z,71.10
2023-07-18T12:17:10.535Z,70.80
2023-07-18T12:19:45.612Z,71.10
2023-07-18T12:22:20.502Z,70.90
2023-07-18T12:24:48.731Z,71.30
2023-07-18T12:27:23.552Z,72.00
2023-07-18T12:29:50.668Z,70.60
2023-07-18T12:32:28.063Z,71.30
2023-07-18T12:34:57.490Z,70.60
2023-07-18T12:37:31.305Z,71.00
2023-07-18T12:40:04.468Z,71.40
2023-07-18T12:42:31.569Z,71.30
2023-07-18T12:45:05.306Z,70.80
2023-07-18T12:47:32.215Z,70.40
2023-07-18T12:49:59.070Z,69.90
2023-07-18T12:52:32.324Z,70.10
2023-07-18T12:54:59.426Z,69.90
2023-07-18T12:57:34.571Z,70.30
2023-07-18T13:00:17.215Z,69.30
2023-07-18T13:02:54.426Z,69.40
2023-07-18T13:05:21.556Z,68.90
2023-07-18T13:07:55.691Z,69.60
2023-07-18T13:10:23.783Z,69.10
2023-07-18T13:12:57.571Z,68.90
2023-07-18T13:15:31.613Z,68.80
2023-07-18T13:18:05.729Z,62.70
2023-07-18T13:20:45.569Z,61.20
2023-07-18T13:23:12.734Z,61.40
2023-07-18T13:25:46.580Z,62.60
2023-07-18T13:28:13.686Z,63.20
2023-07-18T13:30:42.846Z,63.90
2023-07-18T13:33:16.598Z,64.20
2023-07-18T13:35:43.735Z,64.90
2023-07-18T13:38:17.346Z,64.90
2023-07-18T13:40:46.602Z,66.30
2023-07-18T13:43:20.677Z,65.00
2023-07-18T13:45:49.629Z,65.40
2023-07-18T13:48:16.849Z,65.10
2023-07-18T13:50:50.643Z,65.30
2023-07-18T13:53:17.759Z,65.10
2023-07-18T13:55:44.753Z,64.60
2023-07-18T13:58:18.379Z,64.80
2023-07-18T14:00:45.580Z,64.80
2023-07-18T14:03:27.975Z,65.30
2023-07-18T14:06:06.382Z,65.40
2023-07-18T14:08:39.627Z,65.10
2023-07-18T14:11:06.861Z,65.00
2023-07-18T14:13:40.641Z,65.00
2023-07-18T14:16:14.082Z,65.30
2023-07-18T14:18:53.374Z,65.00
2023-07-18T14:21:26.641Z,65.10
2023-07-18T14:23:53.777Z,64.70
2023-07-18T14:26:21.660Z,64.20
2023-07-18T14:28:55.650Z,64.70
2023-07-18T14:31:22.776Z,64.20
2023-07-18T14:34:05.384Z,63.20
2023-07-18T14:36:32.956Z,58.60
2023-07-18T14:39:06.415Z,58.70
2023-07-18T14:41:33.285Z,58.20
2023-07-18T14:44:00.156Z,58.80
2023-07-18T14:46:33.466Z,60.30
2023-07-18T14:49:00.398Z,60.00
2023-07-18T14:51:33.424Z,60.30
2023-07-18T14:54:00.399Z,59.70
2023-07-18T14:56:28.980Z,60.40
2023-07-18T14:59:02.441Z,60.40
2023-07-18T15:01:36.466Z,60.30
2023-07-18T15:04:10.470Z,61.60
2023-07-18T15:06:37.340Z,61.70
2023-07-18T15:09:04.178Z,62.10
2023-07-18T15:11:37.436Z,62.70
2023-07-18T15:14:04.273Z,61.50
2023-07-18T15:16:37.499Z,60.00
2023-07-18T15:19:10.551Z,60.70
2023-07-18T15:21:50.477Z,58.80
2023-07-18T15:24:18.295Z,55.80
2023-07-18T15:26:45.247Z,56.30
2023-07-18T15:29:18.735Z,56.90
2023-07-18T15:31:52.488Z,57.90
2023-07-18T15:34:19.304Z,57.80
2023-07-18T15:36:48.804Z,58.50
2023-07-18T15:39:22.735Z,58.20
2023-07-18T15:41:49.570Z,58.50
2023-07-18T15:44:22.502Z,59.20
2023-07-18T15:46:56.749Z,59.20
2023-07-18T15:49:30.489Z,59.10
2023-07-18T15:52:03.764Z,60.00
2023-07-18T15:54:37.500Z,59.50
2023-07-18T15:57:11.489Z,59.50
2023-07-18T15:59:38.461Z,60.30
2023-07-18T16:02:12.914Z,59.50
2023-07-18T16:04:39.914Z,60.90
2023-07-18T16:07:07.183Z,61.20
2023-07-18T16:09:54.785Z,61.10
2023-07-18T16:12:21.662Z,59.90
2023-07-18T16:14:49.212Z,60.60
2023-07-18T16:17:22.529Z,60.60
2023-07-18T16:19:57.388Z,60.90
2023-07-18T16:22:31.805Z,60.50
2023-07-18T16:24:58.791Z,61.50
2023-07-18T16:27:25.660Z,61.60
2023-07-18T16:29:58.557Z,61.60
2023-07-18T16:32:27.867Z,62.10
2023-07-18T16:34:55.338Z,62.10
2023-07-18T16:37:29.704Z,61.80
2023-07-18T16:40:03.684Z,62.10
2023-07-18T16:42:30.944Z,62.30
2023-07-18T16:45:04.571Z,60.50
2023-07-18T16:47:31.452Z,58.70
2023-07-18T16:50:04.578Z,60.00
2023-07-18T16:52:31.521Z,60.60
2023-07-18T16:54:58.470Z,61.10
2023-07-18T16:57:31.705Z,59.90
2023-07-18T17:00:04.818Z,59.90
2023-07-18T17:02:31.916Z,59.80
2023-07-18T17:04:59.461Z,60.30
2023-07-18T17:07:32.833Z,61.40
2023-07-18T17:10:00.809Z,62.30
2023-07-18T17:12:34.695Z,59.60
2023-07-18T17:15:01.677Z,60.60
2023-07-18T17:17:48.903Z,61.30
2023-07-18T17:20:22.863Z,61.30
2023-07-18T17:22:50.030Z,61.30
2023-07-18T17:25:23.731Z,58.80
2023-07-18T17:27:50.729Z,60.20
2023-07-18T17:30:17.698Z,61.40
2023-07-18T17:32:50.883Z,61.80
2023-07-18T17:35:18.214Z,62.30
2023-07-18T17:37:45.309Z,61.40
2023-07-18T17:40:19.858Z,60.10
2023-07-18T17:42:53.618Z,59.40
2023-07-18T17:45:21.392Z,60.40
2023-07-18T17:47:48.661Z,59.50
2023-07-18T17:50:22.864Z,60.40
2023-07-18T17:52:49.967Z,61.80
2023-07-18T17:55:17.128Z,61.50
2023-07-18T17:57:50.875Z,59.90
2023-07-18T18:00:18.435Z,60.20
2023-07-18T18:02:52.002Z,60.40
2023-07-18T18:05:47.119Z,60.80
2023-07-18T18:08:21.926Z,59.60
2023-07-18T18:10:49.524Z,59.30
2023-07-18T18:13:17.101Z,59.30
2023-07-18T18:16:06.166Z,61.10
2023-07-18T18:18:41.521Z,60.00
2023-07-18T18:21:16.681Z,61.40
2023-07-18T18:23:49.676Z,59.70
2023-07-18T18:26:23.657Z,60.80
2023-07-18T18:28:50.758Z,61.70
2023-07-18T18:31:24.335Z,62.00
2023-07-18T18:33:51.593Z,62.10
2023-07-18T18:36:30.932Z,60.80
2023-07-18T18:39:04.938Z,60.90
2023-07-18T18:41:32.022Z,60.40
2023-07-18T18:44:05.941Z,61.70
2023-07-18T18:46:32.825Z,59.80
2023-07-18T18:49:03.625Z,61.90
2023-07-18T18:51:37.962Z,61.20
2023-07-18T18:54:05.030Z,61.20
2023-07-18T18:56:38.971Z,60.80
2023-07-18T18:59:05.816Z,59.90
2023-07-18T19:01:39.729Z,60.30
2023-07-18T19:04:06.555Z,62.10
2023-07-18T19:06:33.470Z,62.20
2023-07-18T19:09:10.732Z,62.80
2023-07-18T19:11:37.602Z,63.00
2023-07-18T19:14:05.238Z,63.10
2023-07-18T19:16:39.924Z,63.30
2023-07-18T19:19:21.731Z,63.40
2023-07-18T19:22:01.734Z,63.40
2023-07-18T19:24:28.580Z,63.50
2023-07-18T19:26:55.521Z,63.60
2023-07-18T19:29:28.738Z,63.70
2023-07-18T19:31:55.821Z,63.70
2023-07-18T19:34:22.994Z,64.50
2023-07-18T19:36:56.748Z,63.80
2023-07-18T19:39:29.761Z,63.90
2023-07-18T19:41:56.727Z,64.00
2023-07-18T19:44:29.738Z,64.10
2023-07-18T19:46:58.763Z,64.00
2023-07-18T19:49:26.307Z,64.20
2023-07-18T19:52:09.036Z,64.30
2023-07-18T19:54:43.005Z,64.40
2023-07-18T19:57:09.969Z,64.50
2023-07-18T19:59:44.066Z,64.40
2023-07-18T20:02:10.985Z,64.60
2023-07-18T20:04:37.995Z,64.60
2023-07-18T20:07:11.800Z,64.70
2023-07-18T20:09:44.793Z,64.70
2023-07-18T20:12:11.622Z,64.90
2023-07-18T20:14:38.411Z,64.90
2023-07-18T20:17:11.794Z,64.90
2023-07-18T20:19:45.779Z,65.00
2023-07-18T20:22:31.131Z,65.10
2023-07-18T20:24:58.236Z,65.20
2023-07-18T20:27:25.409Z,65.20
2023-07-18T20:29:59.077Z,65.20
2023-07-18T20:32:26.192Z,65.30
2023-07-18T20:34:53.149Z,65.30
2023-07-18T20:37:26.849Z,65.40
2023-07-18T20:39:53.960Z,65.30
2023-07-18T20:42:33.953Z,65.40
2023-07-18T20:45:08.900Z,65.50
2023-07-18T20:47:35.792Z,65.50
2023-07-18T20:50:10.831Z,65.60
2023-07-18T20:52:37.902Z,65.60
2023-07-18T20:55:05.628Z,65.60
2023-07-18T20:57:38.972Z,65.70
2023-07-18T21:00:07.249Z,65.70
2023-07-18T21:02:40.878Z,65.70
2023-07-18T21:05:08.192Z,65.70
2023-07-18T21:07:41.976Z,65.80
2023-07-18T21:10:09.545Z,65.90
2023-07-18T21:12:42.855Z,65.90
2023-07-18T21:15:10.933Z,65.90
2023-07-18T21:17:50.943Z,66.00
2023-07-18T21:20:23.995Z,66.00
2023-07-18T21:22:57.927Z,66.00
2023-07-18T21:25:24.848Z,66.10
2023-07-18T21:27:52.097Z,66.20
2023-07-18T21:30:25.887Z,66.20
2023-07-18T21:32:53.102Z,66.20
2023-07-18T21:35:23.322Z,66.20
2023-07-18T21:37:56.883Z,66.30
2023-07-18T21:40:23.870Z,66.40
2023-07-18T21:42:56.923Z,66.40
2023-07-18T21:45:29.905Z,66.50
2023-07-18T21:47:57.013Z,66.60
2023-07-18T21:50:30.928Z,66.60
2023-07-18T21:53:03.911Z,66.60
2023-07-18T21:55:37.182Z,66.70
2023-07-18T21:58:10.906Z,66.70
2023-07-18T22:00:44.180Z,66.80
2023-07-18T22:03:11.430Z,66.80
2023-07-18T22:05:38.584Z,66.80
2023-07-18T22:08:12.157Z,66.90
2023-07-18T22:10:39.308Z,67.00
2023-07-18T22:13:06.397Z,66.90
2023-07-18T22:15:40.069Z,67.00
2023-07-18T22:18:27.990Z,67.10
2023-07-18T22:21:01.920Z,67.20
2023-07-18T22:23:36.237Z,67.10
2023-07-18T22:26:13.714Z,67.20
2023-07-18T22:28:49.114Z,67.30
2023-07-18T22:31:16.275Z,67.40
2023-07-18T22:33:43.193Z,67.30
2023-07-18T22:36:17.214Z,67.50
2023-07-18T22:38:44.348Z,67.50
2023-07-18T22:41:18.356Z,67.60
2023-07-18T22:43:45.292Z,67.60
2023-07-18T22:46:12.398Z,67.70
2023-07-18T22:48:46.205Z,67.80
2023-07-18T22:51:13.180Z,67.90
2023-07-18T22:53:47.225Z,67.90
2023-07-18T22:56:15.515Z,67.90
2023-07-18T22:58:49.231Z,68.00
2023-07-18T23:01:16.885Z,68.10
2023-07-18T23:03:50.044Z,68.10
2023-07-18T23:06:17.206Z,68.20
2023-07-18T23:08:51.272Z,68.30
2023-07-18T23:11:18.599Z,68.40
2023-07-18T23:13:45.882Z,68.50
2023-07-18T23:16:22.263Z,68.40
2023-07-18T23:18:56.100Z,68.50
2023-07-18T23:21:29.273Z,68.50
2023-07-18T23:23:56.597Z,68.70
2023-07-18T23:26:29.989Z,68.70
2023-07-18T23:28:56.824Z,68.70
2023-07-18T23:31:30.009Z,68.70
2023-07-18T23:33:57.304Z,68.80
2023-07-18T23:36:24.575Z,68.80
2023-07-18T23:38:57.994Z,68.80
2023-07-18T23:41:24.989Z,68.90
2023-07-18T23:43:53.156Z,69.00
2023-07-18T23:46:26.076Z,69.00
2023-07-18T23:48:52.968Z,69.10
2023-07-18T23:51:28.019Z,69.20
2023-07-18T23:53:54.935Z,69.20
2023-07-18T23:56:28.066Z,69.30
2023-07-18T23:58:55.421Z,69.30
